Impacts TAF Board
For situational awareness. Not to be used for flight planning purposes.
IDs:

KELD - El Dorado/S Arkansas, AR, US

Issued at 0540 UTC 18 Sep 2021
Updated at 0634 UTC 18 Sep 2021
Potential Impact None Slight Moderate High
Time0553Z 18/07Z 18/08Z 18/09Z 18/10Z 18/11Z 18/12Z 18/13Z 18/14Z 18/15Z 18/16Z 18/17Z 18/18Z 18/19Z>>
Type OBS PRVL PRVL PRVL PRVL PRVL PRVL PRVL PRVL PRVL PRVL PRVL PRVL PRVL
VIS 10 >6 >6 3 3 3 3 3 3 3 6 6 >6 >6
CIG 4 6 6 3 3 3 3 3 3 3 7 7 15 15
Cover OVC OVC OVC OVC OVC OVC OVC OVC OVC OVC OVC OVC OVC OVC
FltCat LIFR IFR IFR LIFR LIFR LIFR LIFR LIFR LIFR LIFR IFR IFR MVFR MVFR
WX -- -- -- BR BR BR BR BR BR BR BR VCSH BR VCSH VCSH VCSH
WDir 350 30 30 VRB VRB VRB VRB VRB VRB VRB VRB VRB 70 70
WSpd 7 4 4 3 3 3 3 3 3 3 4 4 5 5
WGst -- -- -- -- -- -- -- -- -- -- -- -- -- --
Raw TAF
KELD 180540Z 1806/1906 03004KT P6SM OVC006
  FM180900 VRB03KT 3SM BR OVC003
  FM181600 VRB04KT 6SM BR VCSH OVC007
  FM181800 07005KT P6SM VCSH OVC015
  FM182100 07005KT P6SM VCSH BKN023
  FM190000 05005KT 5SM SHRA VCTS BKN035CB


Raw METAR
KELD 180553Z AUTO 35007KT 10SM BKN004 OVC008 23/22 A3000 RMK AO2 SLP155 T02330222 10244 20222 402670217 50008
KELD 180551Z AUTO 34007KT 10SM BKN004 OVC008 23/22 A3000 RMK AO2
KELD 180453Z AUTO 03004KT 10SM OVC006 23/23 A3000 RMK AO2 CIG 004V010 SLP154 T02330228
KELD 180353Z AUTO 36005KT 10SM BKN007 23/22 A2998 RMK AO2 CIG 006V010 SLP148 T02280222
KELD 180350Z AUTO 35005KT 10SM BKN007 23/22 A2998 RMK AO2
KELD 180341Z AUTO 35003KT 10SM SCT009 23/22 A2998 RMK AO2 T02280222

METAR Board
Radar Display
Forecast Discussion
For situational awareness. Not to be used for flight planning purposes.